New Winchester, Ohio
Current Conditions -  °F | °C
As of 9:53 PM on Monday 22 Dec 2014 (Local Time) from KMNN Reporting Station
Overcast Overcast  
Wind Chill: 37°   Ceiling: 9000
Heat Index: 43°   Visibility: 10mi
Dew Point: 33°   Wind: 10mph
Humidity: 68%   Direction: 140°SE
Pressure: 29.82"   Gusts: NA
Location:  40.815°N, 82.9723°W
Report Text: KMNN 230253Z AUTO 14009KT 10SM BKN090 OVC110 06/01 A2982 RMK AO2 SLP107 T00610006 56016 TSNO
Loading
Personal Weather Stations






























Interactive Weather Map New forecast layout! Learn more

10-Day Weather Forecast

Advertisements
Track Severe Weather on mobile